NOTICIAS

25/04/2017Advertencia amarilla por vientos fuertes y persistentes ADVERTENCIA A LA POBLACIÓNNivel: amarilloFenómeno: vientos fuertes y persistentesZona: Montevideo, Canelones, Maldonado y RochaA partir de las 00:00 horas del miércoles 26 de abril regirá una advertencia nivel amarillo en los departamentos de Montevideo, Canelones, Maldonado y Rocha por vientos fuertes y persistentes de entre 60 y 80km/h, con ráfagas superiores.Esta advertencia se actualizará a las 18:00 horas del miércoles 26.Continuaremos monitoreando la situación e informaremos ante eventuales cambios.

Productos aeronáuticos

  • SIGMET
  • METAR / SPECI
  • TAF
  • AIREP
  • Aviso de aeródromo
  • Pronárea
  • Carta superficie
Fecha : 25/04/2017
FTUY 02 SUMU 26 05 30
SUMU TAF 260530Z 2606/2706 22020KT 3000 DZBR BKN012 OVC030 TX16/2618Z TN13/2610Z TEMPO 2606/2618 23025G35KT 8000 RA BKN010 BKN040 =
SULS TAF 260530Z 2606/2706 22020KT 3000 DZBR BKN012 OVC030 TX16/2618Z TN13/2610Z TEMPO 2606/2618 23030G40KT 8000 RA BKN010 BKN040 =
SUAA TAF 260530Z 2606/2706 22020KT 3000 DZBR BKN012 OVC030 TX16/2618Z TN13/2610Z TEMPO 2606/2618 23025G35KT 8000 RA BKN010 BKN040
SUCA TAF 260530Z 2606/2706 22020KT 3000 DZBR BKN012 OVC030 TX16/2618Z TN13/2610Z TEMPO 2606/2618 23025G35KT 8000 RA BKN010 BKN040
SUDU TAF 260530Z 2606/2706 22020KT 3000 DZBR BKN012 OVC030 TX16/2618Z TN13/2610Z TEMPO 2606/2615 23020G30KT 8000 RA BKN010 BKN040
SUSO TAF 260530Z 2606/2706 22020KT 9999 SCT020 BKN070 TX16/2618Z TN12/2610Z TEMPO 2606/2615 23020G30KT =
SURV TAF 260530Z 2606/2706 22020KT 9999 SCT020 BKN070 TX16/2618Z TN12/2610Z TEMPO 2606/2615 23020G30KT =

Predictor :


Mensajes TAF vigentes - Internacionales


Argentina
TAF SACO 252300Z 2600/2624 18010KT FEW025 TX18/2618Z TN06/2610Z BECMG 2612/2616 23015G20KT CAVOK
TAF SAEZ 252300Z 2600/2624 20010KT 8000 -RADZ SCT015 BKN030 OVC040 TX17/2618Z TN08/2610Z BECMG 2603/2606 20015G25KT 9999 SCT025 BKN040 BECMG 2612/2615 23020G30KT 9999 SCT040 BECMG 2622/2624 26015KT
TAF SAME 252300Z 2600/2624 18010KT 9999 SCT040 TX18/2620Z TN12/2610Z
TAF SABE 252300Z 2600/2624 22020G30KT 9999 SCT030 BKN100 TX16/2618Z TN10/2610Z BECMG 2610/2614 25020KT CAVOK
TAF SAAR 252300Z 2600/2624 20015KT 9999 BKN020 OVC100 TX18/2618Z TN07/2610Z BECMG 2603/2606 23015KT CAVOK BECMG 2616/2618 SCT030
Bolivia
TAF COR SLLP 252200Z 2600/2624 05005KT 9999 FEW015 FEW017CB TX15/2620Z TN01/2610Z BECMG 2607/2610 4000E VCFG FEW002 SCT012 BECMG 2612/2615 9999 NSW FEW015 FEW017CB TEMPO 2617/2620 33012KT 8000 VCTSSH FEW017 FEW020CB
Brasil
TAF SBBR 252200Z 2600/2624 05004KT 9999 FEW035TCU TN18/2608Z TX28/261 6Z PROB30 2600/2603 TSRA BKN030 FEW035CB BECMG 2603/2605 05003KT CAVOK BECMG 2613/2614 06005KT 8000 NSC BECMG 2615/2617 01004KT 9999 FEW045TCU RMK PDC
TAF SBPA 252130Z 2600/2624 32010KT 9999 BKN010 TX22/2618Z TN14/2623Z TEMPO 2600/2610 3000 TSRA BR BKN005 FEW040CB BECMG 2610/2612 29015KT BKN020 BECMG 2614/2616 29020KT CAVOK RMK PDW
TAF SBFI 252130Z 2600/2624 01008KT 9999 FEW035 TX24/2618Z TN15/2623Z TEMPO 2600/2610 26010KT 3000 TSRA BR BKN005 FEW035CB TEMPO 2610/2614 22010KT BKN010 BECMG 2614/2616 20008KT CAVOK RMK PDW
TAF SBFL 252130Z 2600/2624 33010KT 9999 SCT012 TX28/2615Z TN22/2623Z TEMPO 2600/2608 VCSH BKN012 TEMPO 2608/2613 4000 RA BKN012 FEW030TCU BECMG 2613/2615 27010KT CAVOK RMK PDW
TAF SBSP 252100Z 2600/2624 06005KT CAVOK TN20/2608Z TX29/2617Z BECMG 2608/2610 34005KT BECMG 2613/2615 33012KT 9999 SCT035 TEMPO 2618/2622 8000 TSRA BKN035 FEW045CB RMK PGH
TAF SBGR 252100Z 2600/2706 07005KT CAVOK TN20/2608Z TX29/2617Z BECMG 2608/2610 34005KT BECMG 2613/2615 32012KT 9999 SCT040 TEMPO 2618/2622 8000 TSRA BKN040 FEW045CB BECMG 2700/2702 35006KT 8000 BKN020 RMK PGH
TAF SBRJ 252030Z 2600/2612 15005KT CAVOK TN20/2609Z TX26/2612Z BECMG 2601/2602 07005KT BECMG 2603/2604 34005KT BECMG 2611/2612 01015KT RMK PGS
Colombia
TAF SKBO 252300Z 2600/2624 VRB02KT 9999 SCT020 SCT100 BECMG 2604/2606 03006KT BECMG 2615/2617 21010KT PROB40 2620/2622 DZ SCT017CB BKN090 TX20/2618Z TN10/2611Z
Chile
TAF SCCI 252234Z 2600/2700 25015KT 9999 SCT030 TN04/2603Z TX10/2618Z TEMPO 2600/2604 9000 -SHRA BKN030 BECMG 2601/2603 25010KT BECMG 2604/2606 25020G30KT SCT040 BECMG 2611/2613 28025G35KT TEMPO 2611/2619 26030G40KT BECMG 2618/2620 24025G35KT TEMPO 2618/2623 9000 -SHRA BKN030 BECMG 2622/2700 24020G30KT
TAF SCEL 252159Z 2600/2624 19008KT 9999 FEW050 TX25/2618Z TN04/2610Z BECMG 2601/2603 16004KT CAVOK TEMPO 2609/2613 VRB02KT 7000 NSC BECMG 2614/2616 19008KT
Ecuador
SEQM 252225Z 2600/2624 VRB03KT 8000 BCFG SCT008 BKN020 FM260500 00000KT 5000 BCFG SCT005 BKN020 FM261200 VRB03KT 9999 SCT026 SCT100 FM261800 36010KT 9999 SCT030 BKN100 TEMP 2620/2623 TSRA FEW026CB BKN030N TX23/2619Z TN11/2611Z
EEUU
KMIA 260253Z 2603/2624 VRB04KT P6SM SKC FM261400 16008KT P6SM SCT250 FM262000 15010G18KT P6SM FEW060 SCT250 FM262100 14008KT P6SM SCT250
KJFK 260149Z 2602/2706 05015G24KT 3SM -RA BR OVC006 TEMPO 2602/2603 2SM +RA BR OVC005 FM260300 05012G18KT 3SM -RA BR OVC005 TEMPO 2603/2607 2SM -RA BR FM260700 05009KT 1SM -RA BR OVC004 FM261500 04008KT 3SM BR VCSH OVC007 FM261900 03008KT 6SM BR OVC008 FM270000 VRB03KT 3/4SM BR OVC003
KLGA 260149Z 2602/2624 06018G28KT 3SM -RA BR OVC006 TEMPO 2602/2603 2SM +RA BR OVC005 FM260300 06014G20KT 3SM -RA BR OVC005 TEMPO 2603/2607 2SM -RA BR FM260700 05009KT 1SM -RA BR OVC003 FM261500 03009KT 3SM BR VCSH OVC006 FM261900 03008KT 6SM BR OVC008
KIAD 260129Z 2601/2706 02007KT 3SM BR OVC007 FM261500 33006KT P6SM BKN015 FM261800 33004KT P6SM BKN025 FM262000 VRB03KT P6SM SCT035
KDCA 252340Z 2600/2624 04012KT P6SM -DZ OVC009 FM260300 01008KT 5SM -DZ BR OVC009 FM260600 36006KT 4SM BR OVC004 FM261500 33006KT P6SM OVC008 FM261800 33005KT P6SM BKN025 FM262100 VRB03KT P6SM SCT030
España
TAF LEMD 252300Z 2600/2706 VRB05KT 9999 SCT060 TX20/2615Z TN06/2606Z BECMG 2602/2604 02007KT BECMG 2610/2612 28008KT BECMG 2616/2617 03012KT PROB30 TEMPO 2620/2706 03010G22KT
TAF LEBL 252300Z 2600/2624 VRB04KT 9999 FEW015 SCT020 TX17/2612Z TN13/2606Z PROB40 TEMPO 2600/2608 BKN012 TEMPO 2600/2608 33008KT BECMG 2606/2610 09012KT TEMPO 2611/2614 14008KT PROB30 TEMPO 2600/2622 5000 SHRA BKN014 FEW020TCU
Francia
TAF LFPO 252300Z 2600/2706 03007KT CAVOK BECMG 2607/2609 SCT030TCU TEMPO 2610/2618 -SHRA BKN035 SCT040CB PROB30 TEMPO 2613/2618 02015G30KT 4000 -TSRAGS BKN020 SCT030CB BECMG 2618/2620 CAVOK
Inglaterra
TAF AMD EGLL 260352Z 2603/2706 34008KT 9999 SCT030 TEMPO 2603/2608 BKN012 TEMPO 2611/2619 7000 SHRA PROB30 TEMPO 2612/2619 01015G25KT 4000 +SHRA SHGS
Panamá
TAF MPTO 252200Z 2600/2706 32004KT 9999 SCT020 BECMG 2614/2618 17006KT 9000 SCT018 SCT090 PROB30 TEMPO 2619/2623 6000 -TSRA SCT016CB BKN090
Paraguay
TAF AMD SGAS 252325Z 2600/2700 30009KT 9000 -TSRA BKN015 FEW040CB TX20/2619Z TN13/2610Z TEMPO 2603/2605 19010G25KT 5000 TSRA OVC010 FEW040CB BECMG 2606/2609 24012KT 8000 -RA SCT008 BKN010 BECMG 2611/2614 18015KT 9999 BKN020 BECMG 2616/2619 19009KT CAVOK
Venezuela
TAF SVMI 252200Z 2600/2700 05005KT 9999 SCT016 TX32/18Z TN24/08Z BECMG 2600/2604 09005KT FEW016 SCT080

* Datos extraidos del Text DataServer de la NOAA (NOAA TEXT DATA SERVER)

Instituto Uruguayo de Meteorología

Dr. Javier Barrios Amorín 1488 - CP 11200
Mesa Central (598) 1895

Montevideo - Uruguay